Time;durP1;ratioP1;P1;durP2;ratioP2;P2;SDS_P1;SDS_P2;PMS_P1;PMS_P2;Temp;Humidity;BMP_temperature;BMP_pressure;BME280_temperature;BME280_humidity;BME280_pressure;Samples;Min_cycle;Max_cycle;Signal;HPM_P1;HPM_P2
2022/12/05 00:01:48;;;;;;;68.03;36.55;;;3.50;99.90;;;;;;5024685;28;20232;-82
2022/12/05 00:04:15;;;;;;;72.65;37.33;;;3.50;99.90;;;;;;5030625;28;20516;-82
2022/12/05 00:06:42;;;;;;;62.13;32.47;;;3.30;99.90;;;;;;5043637;28;20209;-83
2022/12/05 00:09:12;;;;;;;68.88;37.30;;;3.30;99.90;;;;;;5043803;28;20205;-82
2022/12/05 00:11:41;;;;;;;59.67;31.45;;;3.30;99.90;;;;;;5044378;28;20221;-83
2022/12/05 00:14:10;;;;;;;61.58;32.30;;;3.30;99.90;;;;;;5039728;28;20530;-85
2022/12/05 00:16:39;;;;;;;59.33;33.10;;;3.30;99.90;;;;;;5053719;28;20205;-91
2022/12/05 00:19:09;;;;;;;62.65;31.63;;;3.70;99.90;;;;;;5048558;28;20256;-83
2022/12/05 00:21:36;;;;;;;63.42;32.08;;;3.30;99.90;;;;;;5044927;28;20340;-85
2022/12/05 00:24:06;;;;;;;60.45;32.00;;;3.30;99.90;;;;;;5044394;28;20205;-81
2022/12/05 00:26:34;;;;;;;73.45;34.22;;;3.30;99.90;;;;;;5043971;28;20200;-84
2022/12/05 00:29:02;;;;;;;67.28;34.58;;;3.30;99.90;;;;;;5064424;28;20189;-81
2022/12/05 00:31:29;;;;;;;58.05;34.40;;;3.20;99.90;;;;;;5058686;28;20238;-91
2022/12/05 00:33:59;;;;;;;64.38;34.50;;;3.20;99.90;;;;;;5068097;28;20204;-85
2022/12/05 00:36:29;;;;;;;66.70;34.40;;;3.20;99.90;;;;;;5049586;28;20204;-85
2022/12/05 00:39:00;;;;;;;68.00;38.85;;;3.20;99.90;;;;;;5035279;28;20200;-83
2022/12/05 00:41:28;;;;;;;66.40;36.97;;;3.20;99.90;;;;;;5043341;28;20205;-81
2022/12/05 00:43:58;;;;;;;79.43;40.90;;;3.60;99.90;;;;;;5049463;28;20204;-82
2022/12/05 00:46:27;;;;;;;68.07;37.60;;;3.40;99.90;;;;;;5025165;28;20201;-81
2022/12/05 00:48:56;;;;;;;68.78;36.53;;;3.50;99.90;;;;;;5041792;28;20201;-88
2022/12/05 00:51:29;;;;;;;75.43;36.40;;;3.60;99.90;;;;;;5040091;28;20250;-83
2022/12/05 00:53:59;;;;;;;67.05;34.50;;;3.40;99.90;;;;;;5051041;28;20207;-81
2022/12/05 00:56:27;;;;;;;69.00;39.90;;;3.40;99.90;;;;;;5034326;28;20208;-83
2022/12/05 00:58:55;;;;;;;78.00;38.67;;;3.40;99.90;;;;;;5054999;28;20208;-81
2022/12/05 01:01:25;;;;;;;85.15;41.47;;;4.10;99.90;;;;;;5058422;28;20249;-82
2022/12/05 01:03:54;;;;;;;76.63;45.90;;;3.40;99.90;;;;;;5042671;28;20192;-85
2022/12/05 01:06:22;;;;;;;68.65;41.20;;;3.40;99.90;;;;;;5020155;28;20652;-83
2022/12/05 01:08:51;;;;;;;76.65;41.63;;;4.50;99.90;;;;;;5039359;28;20200;-84
2022/12/05 01:11:19;;;;;;;78.35;41.55;;;3.80;99.90;;;;;;5050206;28;20246;-81
2022/12/05 01:13:46;;;;;;;89.00;40.90;;;3.40;99.90;;;;;;5028884;28;20193;-81
2022/12/05 01:16:22;;;;;;;74.75;39.75;;;3.30;99.90;;;;;;5038288;28;20204;-86
2022/12/05 01:18:50;;;;;;;76.90;39.22;;;3.40;99.90;;;;;;5063797;28;20215;-87
2022/12/05 01:21:19;;;;;;;82.45;39.53;;;3.40;99.90;;;;;;5033567;28;20247;-82
2022/12/05 01:23:46;;;;;;;88.07;40.80;;;3.30;99.90;;;;;;5031398;28;20202;-81
2022/12/05 01:26:16;;;;;;;82.18;40.00;;;3.30;99.90;;;;;;5052690;28;20534;-80
2022/12/05 01:28:43;;;;;;;78.75;42.00;;;3.30;99.90;;;;;;5016369;28;20474;-83
2022/12/05 01:31:21;;;;;;;84.07;43.88;;;3.30;99.90;;;;;;5053836;28;20375;-84
2022/12/05 01:33:49;;;;;;;76.55;41.10;;;3.30;99.90;;;;;;5032348;28;20605;-84
2022/12/05 01:36:16;;;;;;;86.03;48.35;;;3.60;99.90;;;;;;5028543;28;20197;-84
2022/12/05 01:38:44;;;;;;;88.75;45.05;;;3.30;99.90;;;;;;5047563;28;20205;-79
2022/12/05 01:41:17;;;;;;;83.80;43.38;;;3.90;99.90;;;;;;5045987;28;20205;-89
2022/12/05 01:44:03;;;;;;;92.18;47.47;;;3.30;99.90;;;;;;5017462;28;20190;-80
2022/12/05 01:46:35;;;;;;;88.47;45.67;;;3.60;99.90;;;;;;5046966;28;20267;-84
2022/12/05 01:49:09;;;;;;;88.35;43.65;;;3.50;99.90;;;;;;5051379;28;20524;-82
2022/12/05 01:51:39;;;;;;;82.22;44.83;;;3.40;99.90;;;;;;5060599;28;20218;-84
2022/12/05 01:54:08;;;;;;;84.25;42.72;;;3.40;99.90;;;;;;5068599;28;20269;-81
2022/12/05 01:56:41;;;;;;;85.28;42.47;;;3.40;99.90;;;;;;5041201;28;20208;-81
2022/12/05 01:59:10;;;;;;;77.65;42.50;;;3.40;99.90;;;;;;5048385;28;20215;-85
2022/12/05 02:01:38;;;;;;;69.15;35.83;;;3.90;99.90;;;;;;5048470;28;20247;-83
2022/12/05 02:04:05;;;;;;;61.45;34.05;;;3.40;99.90;;;;;;5038565;28;20681;-82
2022/12/05 02:06:33;;;;;;;70.50;39.60;;;3.30;99.90;;;;;;5049153;28;20285;-82
2022/12/05 02:09:00;;;;;;;66.47;39.75;;;3.40;99.90;;;;;;5050644;28;20205;-80
2022/12/05 02:11:30;;;;;;;66.28;36.05;;;3.40;99.90;;;;;;5047715;28;20523;-83
2022/12/05 02:14:12;;;;;;;75.32;36.63;;;3.50;99.90;;;;;;5044419;28;20217;-80
2022/12/05 02:16:46;;;;;;;64.00;31.73;;;3.40;99.90;;;;;;5057217;28;20201;-81
2022/12/05 02:19:44;;;;;;;74.25;34.20;;;3.50;99.90;;;;;;5026334;28;20520;-79
2022/12/05 02:22:33;;;;;;;66.80;35.78;;;3.50;99.90;;;;;;5027658;28;20219;-79
2022/12/05 02:25:10;;;;;;;67.10;34.88;;;3.40;99.90;;;;;;5048227;28;20568;-83
2022/12/05 02:27:50;;;;;;;68.78;38.17;;;3.50;99.90;;;;;;5057450;28;20177;-84
2022/12/05 02:30:18;;;;;;;69.85;39.42;;;3.30;99.90;;;;;;5057953;28;20227;-80
2022/12/05 02:33:10;;;;;;;71.97;41.80;;;3.30;99.90;;;;;;5054412;28;20221;-80
2022/12/05 02:36:03;;;;;;;64.47;39.55;;;3.20;99.90;;;;;;5027750;28;20193;-86
2022/12/05 02:38:39;;;;;;;61.83;38.33;;;3.40;99.90;;;;;;5038468;28;20201;-81
2022/12/05 02:41:13;;;;;;;60.08;34.13;;;3.40;99.90;;;;;;5044766;28;20404;-79
2022/12/05 02:44:09;;;;;;;73.70;38.17;;;3.40;99.90;;;;;;5043413;28;20321;-80
2022/12/05 02:46:39;;;;;;;68.10;39.40;;;3.40;99.90;;;;;;4991684;28;20526;-86
2022/12/05 02:49:22;;;;;;;69.22;38.97;;;3.70;99.90;;;;;;5048576;28;20242;-80
2022/12/05 02:51:59;;;;;;;68.47;38.33;;;3.50;99.90;;;;;;5027196;28;20205;-85
2022/12/05 02:54:31;;;;;;;63.42;36.60;;;3.40;99.90;;;;;;5023375;28;20201;-86
2022/12/05 02:56:59;;;;;;;66.90;38.17;;;3.40;99.90;;;;;;5040562;28;20204;-83
2022/12/05 02:59:27;;;;;;;71.03;42.10;;;3.40;99.90;;;;;;5035992;28;20204;-80
2022/12/05 03:01:54;;;;;;;72.68;36.42;;;3.80;99.90;;;;;;5043437;28;20211;-79
2022/12/05 03:04:23;;;;;;;67.97;39.60;;;4.30;99.90;;;;;;5025542;28;20197;-82
2022/12/05 03:07:05;;;;;;;61.40;37.33;;;3.50;99.90;;;;;;5031407;28;20205;-81
2022/12/05 03:22:56;;;;;;;69.28;36.38;;;3.40;99.90;;;;;;5121562;27;20512;-80
2022/12/05 03:25:34;;;;;;;65.47;40.15;;;3.30;99.90;;;;;;5125357;28;20204;-81
2022/12/05 03:28:24;;;;;;;53.88;32.75;;;3.30;99.90;;;;;;5122348;28;20552;-81
2022/12/05 03:30:57;;;;;;;59.80;34.83;;;3.40;99.90;;;;;;5110783;28;20217;-79
2022/12/05 03:33:33;;;;;;;56.80;34.53;;;3.70;99.90;;;;;;5119710;28;20202;-86
2022/12/05 03:36:11;;;;;;;68.05;35.85;;;3.30;99.90;;;;;;5127133;28;20213;-86
2022/12/05 03:38:58;;;;;;;61.85;35.05;;;3.60;99.90;;;;;;5103201;28;20244;-81
2022/12/05 03:41:37;;;;;;;65.55;34.53;;;3.40;99.90;;;;;;5121699;28;20210;-83
2022/12/05 03:44:17;;;;;;;63.13;35.08;;;3.30;99.90;;;;;;5137708;27;20182;-82
2022/12/05 03:46:51;;;;;;;61.30;33.78;;;3.30;99.90;;;;;;5129034;28;20228;-84
2022/12/05 03:49:39;;;;;;;62.20;33.15;;;3.20;99.90;;;;;;5134378;28;20209;-86
2022/12/05 03:52:26;;;;;;;54.75;33.03;;;3.20;99.90;;;;;;5124497;27;20235;-81
2022/12/05 03:55:03;;;;;;;59.97;33.63;;;3.20;99.90;;;;;;5114861;28;20253;-83
2022/12/05 03:57:39;;;;;;;47.58;29.85;;;3.20;99.90;;;;;;5120723;28;20210;-82
2022/12/05 04:00:09;;;;;;;55.95;31.23;;;3.20;99.90;;;;;;5124196;28;20200;-80
2022/12/05 04:02:46;;;;;;;59.65;31.05;;;3.10;99.90;;;;;;5129656;28;20194;-82
2022/12/05 04:05:50;;;;;;;53.42;30.00;;;3.30;99.90;;;;;;5131617;27;20305;-85
2022/12/05 04:08:26;;;;;;;52.60;30.60;;;4.40;99.90;;;;;;5113338;28;20190;-89
2022/12/05 04:10:57;;;;;;;55.05;31.80;;;3.20;99.90;;;;;;5118035;28;20226;-83
2022/12/05 04:13:49;;;;;;;46.65;30.65;;;3.80;99.90;;;;;;5133106;28;20193;-86
2022/12/05 04:17:08;;;;;;;59.13;30.05;;;3.10;99.90;;;;;;5119473;28;20512;-80
2022/12/05 04:26:55;;;;;;;48.15;28.10;;;3.10;99.90;;;;;;5093598;28;20171;-86
2022/12/05 04:30:11;;;;;;;67.38;32.03;;;3.20;99.90;;;;;;5103460;28;20282;-82
2022/12/05 04:33:33;;;;;;;49.13;29.20;;;2.80;99.90;;;;;;5085729;28;20300;-81
2022/12/05 04:37:29;;;;;;;47.65;29.30;;;3.20;99.90;;;;;;5085239;28;20206;-84
2022/12/05 04:43:55;;;;;;;51.58;32.22;;;3.30;99.90;;;;;;5115367;28;20194;-83
2022/12/05 04:47:28;;;;;;;54.03;30.00;;;3.40;99.90;;;;;;5096392;28;20204;-81
2022/12/05 04:51:02;;;;;;;51.47;28.23;;;3.20;99.90;;;;;;5103432;28;20232;-84
2022/12/05 04:53:58;;;;;;;57.55;29.73;;;3.20;99.90;;;;;;5110936;28;20289;-87
2022/12/05 04:56:54;;;;;;;53.35;32.28;;;3.40;99.90;;;;;;5097485;28;20228;-83
2022/12/05 04:59:41;;;;;;;50.30;29.45;;;3.30;99.90;;;;;;5099114;28;20206;-82
2022/12/05 05:02:43;;;;;;;48.05;29.17;;;3.50;99.90;;;;;;5095785;28;20478;-82
2022/12/05 05:05:50;;;;;;;46.30;29.13;;;3.50;99.90;;;;;;5098623;28;20237;-81
2022/12/05 05:08:28;;;;;;;47.90;30.77;;;3.90;99.90;;;;;;5101140;28;20198;-80
2022/12/05 05:11:06;;;;;;;50.28;29.50;;;5.20;99.90;;;;;;5122346;28;20264;-83
2022/12/05 05:13:34;;;;;;;42.00;27.58;;;3.70;99.90;;;;;;5108546;28;20364;-81
2022/12/05 05:16:01;;;;;;;46.50;29.27;;;3.90;99.90;;;;;;5112341;28;20191;-84
2022/12/05 05:18:28;;;;;;;46.08;29.40;;;3.60;99.90;;;;;;5109322;28;20202;-81
2022/12/05 05:20:55;;;;;;;50.47;31.13;;;4.00;99.90;;;;;;5115532;28;20207;-82
2022/12/05 05:23:22;;;;;;;47.17;29.70;;;3.60;99.90;;;;;;5120047;28;20440;-81
2022/12/05 05:25:54;;;;;;;42.30;26.92;;;3.60;99.90;;;;;;5108431;28;20265;-82
2022/12/05 05:28:22;;;;;;;53.75;28.15;;;3.80;99.90;;;;;;5112894;28;20203;-85
2022/12/05 05:30:48;;;;;;;47.53;26.38;;;3.70;99.90;;;;;;5108796;28;20255;-84
2022/12/05 05:33:15;;;;;;;40.85;27.92;;;3.60;99.90;;;;;;5111306;28;20496;-86
2022/12/05 05:35:43;;;;;;;54.83;28.42;;;3.40;99.90;;;;;;5117798;28;20230;-81
2022/12/05 05:38:10;;;;;;;46.78;27.92;;;3.40;99.90;;;;;;5107339;28;20283;-82
2022/12/05 05:40:39;;;;;;;40.17;24.58;;;3.50;99.90;;;;;;5117098;28;20230;-85
2022/12/05 05:43:09;;;;;;;45.47;26.38;;;3.60;99.90;;;;;;5106111;28;20187;-80
2022/12/05 05:45:36;;;;;;;45.42;26.75;;;4.10;99.90;;;;;;5116425;28;20198;-82
2022/12/05 05:48:04;;;;;;;45.10;26.90;;;3.60;99.90;;;;;;5111798;28;20198;-81
2022/12/05 05:50:31;;;;;;;38.45;26.42;;;3.60;99.90;;;;;;5098889;28;20492;-82
2022/12/05 05:52:59;;;;;;;50.22;29.35;;;3.40;99.90;;;;;;5105898;28;20203;-84
2022/12/05 05:55:26;;;;;;;44.50;27.80;;;3.90;99.90;;;;;;5114747;28;20221;-84
2022/12/05 05:58:02;;;;;;;45.67;26.58;;;3.80;99.90;;;;;;5095524;28;20187;-81
2022/12/05 06:00:29;;;;;;;42.65;23.58;;;3.50;99.90;;;;;;5108516;28;20195;-84
2022/12/05 06:02:57;;;;;;;50.63;25.83;;;3.40;99.90;;;;;;5100511;28;20253;-81
2022/12/05 06:05:25;;;;;;;50.75;29.42;;;3.30;99.90;;;;;;5111083;28;20216;-82
2022/12/05 06:07:52;;;;;;;42.25;26.05;;;4.10;99.90;;;;;;5111697;28;20217;-82
2022/12/05 06:10:19;;;;;;;48.20;25.70;;;3.30;99.90;;;;;;5108768;28;20375;-82
2022/12/05 06:12:46;;;;;;;49.08;26.23;;;3.80;99.90;;;;;;5104094;28;20235;-83
2022/12/05 06:15:13;;;;;;;46.42;28.58;;;3.40;99.90;;;;;;5120889;28;20247;-83
2022/12/05 06:17:40;;;;;;;47.70;25.73;;;3.40;99.90;;;;;;5119631;28;20487;-83
2022/12/05 06:20:07;;;;;;;47.28;26.38;;;3.40;99.90;;;;;;5125192;28;20302;-84
2022/12/05 06:22:34;;;;;;;44.90;28.45;;;3.40;99.90;;;;;;5120452;28;20207;-82
2022/12/05 06:25:02;;;;;;;47.55;24.95;;;3.40;99.90;;;;;;5106408;28;20202;-82
2022/12/05 06:27:30;;;;;;;52.13;27.50;;;3.50;99.90;;;;;;5117792;28;20198;-87
2022/12/05 06:29:57;;;;;;;38.13;25.35;;;3.40;99.90;;;;;;5104599;28;20411;-83
2022/12/05 06:32:27;;;;;;;45.30;26.08;;;3.40;99.90;;;;;;5088867;28;20408;-82
2022/12/05 06:34:54;;;;;;;44.75;27.67;;;3.90;99.90;;;;;;5104083;28;20513;-81
2022/12/05 06:37:21;;;;;;;42.95;22.83;;;3.40;99.90;;;;;;5085531;28;20196;-80
2022/12/05 06:39:51;;;;;;;46.83;28.17;;;3.50;99.90;;;;;;5101732;28;20225;-81
2022/12/05 06:42:18;;;;;;;46.78;26.25;;;3.60;99.90;;;;;;5106949;28;20205;-84
2022/12/05 06:44:45;;;;;;;43.00;26.75;;;3.40;99.90;;;;;;5115987;28;20197;-88
2022/12/05 06:47:12;;;;;;;49.33;26.05;;;3.40;99.90;;;;;;5105411;28;20215;-84
2022/12/05 06:49:39;;;;;;;53.65;32.10;;;3.40;99.90;;;;;;5100866;28;20207;-82
2022/12/05 06:52:06;;;;;;;46.03;24.65;;;3.70;99.90;;;;;;5103746;28;20227;-83
2022/12/05 06:54:33;;;;;;;44.90;27.40;;;3.30;99.90;;;;;;5110891;28;20221;-94
2022/12/05 06:57:00;;;;;;;38.72;25.25;;;3.40;99.90;;;;;;5112865;28;20224;-82
2022/12/05 06:59:28;;;;;;;50.67;28.35;;;3.30;99.90;;;;;;5095421;28;20472;-85
2022/12/05 07:01:54;;;;;;;50.42;27.73;;;3.30;99.90;;;;;;5101675;28;20425;-87
2022/12/05 07:04:23;;;;;;;45.70;28.23;;;3.60;99.90;;;;;;5094093;28;20267;-84
2022/12/05 07:06:51;;;;;;;43.95;27.75;;;4.30;99.90;;;;;;5111563;28;20294;-82
2022/12/05 07:09:22;;;;;;;52.58;31.92;;;3.40;99.90;;;;;;5093233;28;20203;-83
2022/12/05 07:11:49;;;;;;;46.65;27.70;;;3.40;99.90;;;;;;5094151;28;20275;-82
2022/12/05 07:14:17;;;;;;;46.88;26.80;;;3.40;99.90;;;;;;5097200;28;20499;-82
2022/12/05 07:17:04;;;;;;;54.47;29.88;;;3.90;99.90;;;;;;5098339;28;20187;-84
2022/12/05 07:19:31;;;;;;;43.65;26.55;;;3.70;99.90;;;;;;5109480;28;20509;-82
2022/12/05 07:21:59;;;;;;;44.17;28.67;;;3.40;99.90;;;;;;5110660;28;20206;-83
2022/12/05 07:24:26;;;;;;;52.42;29.48;;;3.50;99.90;;;;;;5105356;28;20202;-84
2022/12/05 07:26:53;;;;;;;43.40;28.13;;;3.50;99.90;;;;;;5106209;28;20207;-85
2022/12/05 07:29:22;;;;;;;48.13;29.48;;;3.90;99.90;;;;;;5119868;28;20202;-86
2022/12/05 07:31:49;;;;;;;53.75;29.65;;;3.70;99.90;;;;;;5095780;28;20388;-86
2022/12/05 07:34:16;;;;;;;47.10;28.73;;;3.40;99.90;;;;;;5109633;28;20230;-84
2022/12/05 07:36:43;;;;;;;48.55;29.63;;;3.80;99.90;;;;;;5109111;28;20206;-82
2022/12/05 07:39:10;;;;;;;48.45;30.48;;;3.50;99.90;;;;;;5101617;28;20452;-83
2022/12/05 07:41:37;;;;;;;50.58;31.35;;;3.60;99.90;;;;;;5096292;28;20214;-85
2022/12/05 07:44:04;;;;;;;48.40;30.63;;;3.50;99.90;;;;;;5090727;28;20206;-82
2022/12/05 07:46:31;;;;;;;43.03;25.75;;;3.50;99.90;;;;;;5100050;28;20199;-83
2022/12/05 07:48:58;;;;;;;46.40;28.98;;;3.50;99.90;;;;;;5109150;28;20210;-85
2022/12/05 07:51:25;;;;;;;52.55;28.35;;;4.40;99.90;;;;;;5102520;28;20227;-82
2022/12/05 07:53:58;;;;;;;45.88;26.20;;;3.60;99.90;;;;;;5105981;28;20216;-81
2022/12/05 07:56:26;;;;;;;47.30;26.38;;;3.70;99.90;;;;;;5105738;28;20213;-82
2022/12/05 07:58:54;;;;;;;47.88;26.83;;;4.10;99.90;;;;;;5106441;28;20560;-90
2022/12/05 08:01:26;;;;;;;40.63;24.73;;;3.70;99.90;;;;;;5098320;28;20386;-83
2022/12/05 08:03:55;;;;;;;47.80;27.67;;;3.80;99.90;;;;;;5105891;28;20486;-81
2022/12/05 08:06:27;;;;;;;37.08;24.95;;;3.90;99.90;;;;;;5112557;28;20210;-83
2022/12/05 08:08:56;;;;;;;47.00;28.00;;;4.10;99.90;;;;;;5107480;28;20220;-85
2022/12/05 08:11:29;;;;;;;48.22;25.92;;;3.90;99.90;;;;;;5114148;28;20222;-82
2022/12/05 08:13:57;;;;;;;43.40;26.35;;;3.90;99.90;;;;;;5112251;28;20254;-88
2022/12/05 08:16:27;;;;;;;35.78;22.67;;;3.80;99.90;;;;;;5105668;28;20248;-85
2022/12/05 08:18:56;;;;;;;40.25;25.30;;;3.70;99.90;;;;;;5115327;28;20194;-81
2022/12/05 08:21:26;;;;;;;41.63;26.38;;;3.60;99.90;;;;;;5112683;28;20196;-86
2022/12/05 08:23:54;;;;;;;41.15;25.00;;;3.80;99.90;;;;;;5113561;28;20202;-83
2022/12/05 08:26:29;;;;;;;41.63;25.02;;;3.80;99.90;;;;;;5104961;28;20276;-82
2022/12/05 08:29:00;;;;;;;40.55;25.10;;;3.90;99.90;;;;;;5104457;28;20213;-89
2022/12/05 08:31:32;;;;;;;43.28;25.05;;;4.00;99.90;;;;;;5108681;28;20218;-84
2022/12/05 08:33:59;;;;;;;37.78;24.00;;;5.00;99.90;;;;;;5119796;28;20202;-87
2022/12/05 08:36:29;;;;;;;46.08;27.08;;;3.90;99.90;;;;;;5110134;28;20513;-85
2022/12/05 08:38:57;;;;;;;53.72;26.88;;;3.80;99.90;;;;;;5117598;28;20205;-82
2022/12/05 08:41:27;;;;;;;54.63;28.13;;;3.90;99.90;;;;;;5108032;28;20208;-84
2022/12/05 08:44:01;;;;;;;39.63;24.95;;;4.20;99.90;;;;;;5112353;28;20194;-88
2022/12/05 08:46:33;;;;;;;41.90;27.95;;;4.00;99.90;;;;;;5108058;28;20210;-82
2022/12/05 08:49:04;;;;;;;40.40;27.00;;;3.90;99.90;;;;;;5111447;28;20194;-82
2022/12/05 08:51:32;;;;;;;46.00;26.63;;;3.80;99.90;;;;;;5121039;28;20229;-83
2022/12/05 08:54:01;;;;;;;48.38;26.17;;;3.90;99.90;;;;;;5126870;28;20202;-87
2022/12/05 08:56:34;;;;;;;46.10;26.90;;;4.20;99.90;;;;;;5121070;28;20281;-88
2022/12/05 08:59:01;;;;;;;43.92;26.65;;;3.80;99.90;;;;;;5096583;28;20194;-81
2022/12/05 09:01:37;;;;;;;49.17;31.85;;;3.90;99.90;;;;;;5107304;28;20448;-82
2022/12/05 09:04:06;;;;;;;45.90;28.33;;;3.90;99.90;;;;;;5093669;28;20203;-84
2022/12/05 09:06:34;;;;;;;52.90;30.80;;;4.00;99.90;;;;;;5087968;28;20258;-87
2022/12/05 09:09:05;;;;;;;38.90;26.70;;;4.00;99.90;;;;;;5105426;28;20466;-85
2022/12/05 09:11:36;;;;;;;44.13;28.35;;;4.00;99.90;;;;;;5104896;28;20240;-81
2022/12/05 09:14:04;;;;;;;53.65;30.75;;;3.90;99.90;;;;;;5103821;28;20207;-83
2022/12/05 09:16:33;;;;;;;49.22;31.75;;;4.00;99.90;;;;;;5114681;28;20223;-82
2022/12/05 09:19:09;;;;;;;52.55;32.45;;;4.30;99.90;;;;;;5119450;28;20194;-82
2022/12/05 09:21:36;;;;;;;53.28;33.70;;;4.10;99.90;;;;;;5104546;28;20425;-87
2022/12/05 09:24:03;;;;;;;53.20;33.10;;;4.20;99.90;;;;;;5104722;28;20205;-83
2022/12/05 09:26:31;;;;;;;51.03;33.42;;;4.20;99.90;;;;;;5105942;28;20244;-87
2022/12/05 09:28:57;;;;;;;54.47;29.77;;;4.50;99.90;;;;;;5111169;28;20194;-83
2022/12/05 09:31:26;;;;;;;54.28;31.55;;;4.10;99.90;;;;;;5095255;28;20499;-88
2022/12/05 09:33:54;;;;;;;55.95;33.25;;;4.10;99.90;;;;;;5104482;28;20209;-86
2022/12/05 09:36:24;;;;;;;54.58;32.78;;;4.00;99.90;;;;;;5110931;28;20200;-88
2022/12/05 09:38:52;;;;;;;59.10;36.25;;;5.10;99.90;;;;;;5096683;28;20211;-82
2022/12/05 09:42:03;;;;;;;63.25;38.13;;;5.10;99.90;;;;;;5116881;28;20202;-83
2022/12/05 09:44:31;;;;;;;65.97;34.47;;;5.40;99.90;;;;;;5094769;28;20214;-85
2022/12/05 09:47:03;;;;;;;54.25;31.45;;;4.20;99.90;;;;;;5108349;28;20200;-81
2022/12/05 09:49:33;;;;;;;54.72;31.10;;;4.20;99.90;;;;;;5095797;28;20220;-85
2022/12/05 09:52:01;;;;;;;58.60;33.30;;;4.30;99.90;;;;;;5105278;28;20362;-89
2022/12/05 09:54:30;;;;;;;60.78;33.67;;;4.30;99.90;;;;;;5106688;28;20203;-89
2022/12/05 09:56:58;;;;;;;64.60;37.28;;;4.80;99.90;;;;;;5117425;28;20187;-90
2022/12/05 09:59:26;;;;;;;68.15;33.95;;;4.30;99.90;;;;;;5116148;28;20293;-89
2022/12/05 10:02:15;;;;;;;64.38;32.83;;;5.10;99.90;;;;;;5120936;28;20195;-81
2022/12/05 10:04:45;;;;;;;52.78;33.50;;;4.40;99.90;;;;;;5102294;28;20203;-84
2022/12/05 10:07:36;;;;;;;76.95;39.08;;;4.60;99.90;;;;;;5105773;28;20198;-89
2022/12/05 10:10:33;;;;;;;55.10;33.95;;;4.50;99.90;;;;;;5086642;28;20199;-87
2022/12/05 10:13:19;;;;;;;56.95;33.15;;;4.50;99.90;;;;;;5097896;28;20226;-84
2022/12/05 10:15:54;;;;;;;62.70;35.47;;;4.40;99.90;;;;;;5104088;28;20214;-82
2022/12/05 10:18:28;;;;;;;58.75;35.22;;;4.40;99.90;;;;;;5110549;28;20194;-84
2022/12/05 10:21:01;;;;;;;63.63;34.45;;;4.60;99.90;;;;;;5104538;28;20202;-82
2022/12/05 10:23:48;;;;;;;63.65;33.95;;;4.70;99.90;;;;;;5110263;28;20260;-84
2022/12/05 10:26:42;;;;;;;60.55;35.47;;;4.80;99.90;;;;;;5112205;28;20233;-82
2022/12/05 10:29:22;;;;;;;59.08;38.03;;;4.90;99.90;;;;;;5102735;28;20198;-83
2022/12/05 10:31:52;;;;;;;62.17;35.10;;;5.30;99.90;;;;;;5098081;28;20247;-85
2022/12/05 10:34:36;;;;;;;63.25;34.63;;;4.90;99.90;;;;;;5110114;28;20525;-83
2022/12/05 10:37:14;;;;;;;59.25;34.53;;;4.60;99.90;;;;;;5109228;28;20187;-87
2022/12/05 10:39:44;;;;;;;56.25;33.33;;;4.60;99.90;;;;;;5118681;28;20262;-87
2022/12/05 10:42:33;;;;;;;62.58;37.17;;;4.60;99.90;;;;;;5108742;28;20231;-83
2022/12/05 10:45:07;;;;;;;63.45;35.22;;;4.80;99.90;;;;;;5097663;28;20203;-83
2022/12/05 10:47:34;;;;;;;63.75;35.38;;;4.90;99.90;;;;;;5106747;28;20191;-82
2022/12/05 10:50:31;;;;;;;62.20;34.10;;;5.00;99.90;;;;;;5110384;28;20371;-86
2022/12/05 10:53:00;;;;;;;73.00;35.03;;;5.10;99.90;;;;;;5115760;28;20274;-88
2022/12/05 10:55:43;;;;;;;62.05;36.08;;;5.00;99.90;;;;;;5113702;28;20186;-92
2022/12/05 10:58:30;;;;;;;54.00;33.90;;;4.90;99.90;;;;;;5112364;28;20201;-83
2022/12/05 11:01:07;;;;;;;54.72;32.30;;;4.90;99.90;;;;;;5108789;28;20195;-82
2022/12/05 11:03:41;;;;;;;56.63;31.75;;;5.80;99.90;;;;;;5113578;28;20193;-83
2022/12/05 11:06:25;;;;;;;46.25;32.35;;;4.90;99.90;;;;;;5111776;28;20209;-83
2022/12/05 11:08:54;;;;;;;50.95;31.45;;;5.00;99.90;;;;;;5107105;28;20236;-83
2022/12/05 11:11:32;;;;;;;56.42;31.10;;;6.10;99.90;;;;;;5108423;28;20471;-83
2022/12/05 11:14:06;;;;;;;54.72;31.42;;;5.40;99.90;;;;;;5111203;28;20325;-84
2022/12/05 11:16:37;;;;;;;41.75;27.17;;;5.60;99.90;;;;;;5103968;28;20195;-82
2022/12/05 11:19:24;;;;;;;59.83;30.25;;;5.50;99.90;;;;;;5118248;28;20237;-87
2022/12/05 11:21:52;;;;;;;54.10;31.15;;;5.40;99.90;;;;;;5102247;28;20427;-86
2022/12/05 11:24:22;;;;;;;50.30;30.50;;;5.80;99.90;;;;;;5098148;28;20438;-83
2022/12/05 11:26:49;;;;;;;66.22;31.60;;;5.10;99.90;;;;;;5082622;28;20199;-83
2022/12/05 11:29:35;;;;;;;56.10;32.47;;;5.10;99.90;;;;;;5104913;28;20273;-84
2022/12/05 11:32:17;;;;;;;47.53;30.48;;;5.10;99.90;;;;;;5092754;28;20214;-83
2022/12/05 11:35:04;;;;;;;54.92;31.60;;;5.10;99.90;;;;;;5127818;28;20182;-87
2022/12/05 11:37:45;;;;;;;49.47;30.95;;;5.00;99.90;;;;;;5098226;28;20187;-83
2022/12/05 11:40:24;;;;;;;50.42;32.70;;;5.00;99.90;;;;;;5115358;28;20198;-83
2022/12/05 11:43:13;;;;;;;47.85;27.20;;;5.40;99.90;;;;;;5113436;28;20258;-86
2022/12/05 11:46:05;;;;;;;43.45;28.85;;;5.40;99.90;;;;;;5119868;28;20210;-82
2022/12/05 11:48:44;;;;;;;62.53;37.60;;;5.60;99.90;;;;;;5104357;28;20184;-83
2022/12/05 11:51:39;;;;;;;54.63;33.20;;;5.50;99.90;;;;;;5088382;28;20223;-88
2022/12/05 11:54:44;;;;;;;55.55;34.08;;;5.50;99.90;;;;;;5122512;28;20581;-84
2022/12/05 11:57:57;;;;;;;57.05;33.35;;;5.50;99.90;;;;;;5099790;28;20195;-84
2022/12/05 12:00:53;;;;;;;56.63;33.25;;;5.40;99.90;;;;;;5108658;28;20298;-83
2022/12/05 12:03:43;;;;;;;63.38;36.13;;;5.40;99.90;;;;;;5109993;28;20195;-85
2022/12/05 12:06:32;;;;;;;74.85;38.05;;;5.30;99.90;;;;;;5110135;28;20217;-84
2022/12/05 12:09:30;;;;;;;61.88;34.95;;;5.30;99.90;;;;;;5111329;28;20218;-83
2022/12/05 12:12:30;;;;;;;60.45;35.53;;;5.30;99.90;;;;;;5107802;28;20191;-84
2022/12/05 12:15:21;;;;;;;75.03;36.60;;;5.30;99.90;;;;;;5101479;28;20190;-83
2022/12/05 12:18:18;;;;;;;67.57;40.05;;;5.30;99.90;;;;;;5115967;28;20427;-83
2022/12/05 12:20:57;;;;;;;75.75;38.67;;;5.50;99.90;;;;;;5115069;28;20256;-82
2022/12/05 12:23:24;;;;;;;63.78;37.95;;;5.50;99.90;;;;;;5107444;28;20241;-84
2022/12/05 12:26:03;;;;;;;60.22;34.25;;;6.20;99.90;;;;;;5112796;28;20191;-81
2022/12/05 12:28:56;;;;;;;54.88;33.25;;;5.60;99.90;;;;;;5129104;28;20194;-83
2022/12/05 12:31:49;;;;;;;55.35;35.08;;;5.60;99.90;;;;;;5080130;28;20531;-84
2022/12/05 12:34:37;;;;;;;59.55;34.17;;;5.60;99.90;;;;;;5099848;28;20218;-85
2022/12/05 12:37:31;;;;;;;69.05;38.28;;;5.40;99.90;;;;;;5092285;28;20217;-82
2022/12/05 12:40:20;;;;;;;56.45;33.50;;;5.60;99.90;;;;;;5100609;28;20202;-83
2022/12/05 12:43:09;;;;;;;61.97;37.55;;;5.50;99.90;;;;;;5114572;28;20206;-80
2022/12/05 12:46:24;;;;;;;64.38;37.60;;;5.30;99.90;;;;;;5095472;28;20341;-83
2022/12/05 12:48:54;;;;;;;61.17;35.90;;;5.40;99.90;;;;;;5111752;28;20212;-83
2022/12/05 12:51:24;;;;;;;58.33;34.75;;;5.30;99.90;;;;;;5126925;28;20582;-85
2022/12/05 12:54:05;;;;;;;55.70;33.38;;;5.30;99.90;;;;;;5120236;28;20215;-90
2022/12/05 12:56:51;;;;;;;61.22;35.35;;;5.40;99.90;;;;;;5106174;28;20198;-82
2022/12/05 12:59:37;;;;;;;57.05;31.55;;;5.40;99.90;;;;;;5115980;28;20374;-85
2022/12/05 13:02:12;;;;;;;58.08;34.90;;;5.30;99.90;;;;;;5124066;28;20247;-81
2022/12/05 13:05:00;;;;;;;87.50;46.50;;;6.70;99.90;;;;;;5105451;28;20191;-81
2022/12/05 13:07:46;;;;;;;54.65;35.13;;;5.60;99.90;;;;;;5106986;28;20187;-83
2022/12/05 13:10:27;;;;;;;47.80;31.08;;;5.60;99.90;;;;;;5111659;28;20198;-82
2022/12/05 13:12:58;;;;;;;55.00;33.03;;;5.70;99.90;;;;;;5085784;28;20241;-83
2022/12/05 13:15:40;;;;;;;51.40;31.85;;;5.60;99.90;;;;;;5109926;28;20217;-87
2022/12/05 13:18:17;;;;;;;55.05;31.25;;;5.70;99.90;;;;;;5101818;28;20210;-84
2022/12/05 13:20:49;;;;;;;56.25;32.53;;;6.00;99.90;;;;;;5091898;28;20206;-84
2022/12/05 13:23:21;;;;;;;57.95;34.15;;;5.60;99.90;;;;;;5096764;28;20214;-88
2022/12/05 13:25:51;;;;;;;49.60;32.00;;;5.70;99.90;;;;;;5103698;28;20360;-84
2022/12/05 13:28:40;;;;;;;57.88;36.72;;;5.60;99.90;;;;;;5107295;28;20519;-82
2022/12/05 13:31:12;;;;;;;52.47;34.20;;;5.50;99.90;;;;;;5105128;28;20198;-84
2022/12/05 13:33:47;;;;;;;58.72;33.00;;;5.90;99.90;;;;;;5122468;28;20218;-86
2022/12/05 13:42:28;;;;;;;54.90;34.85;;;6.00;99.90;;;;;;5093539;28;20494;-82
2022/12/05 13:45:08;;;;;;;64.28;34.10;;;5.90;99.90;;;;;;5106943;28;20187;-81
2022/12/05 13:47:58;;;;;;;57.65;34.60;;;5.90;99.90;;;;;;5107044;28;20201;-84
2022/12/05 13:50:33;;;;;;;56.05;33.28;;;5.90;99.90;;;;;;5107728;28;20207;-83